Time;durP1;ratioP1;P1;durP2;ratioP2;P2;SDS_P1;SDS_P2;PMS_P1;PMS_P2;Temp;Humidity;BMP_temperature;BMP_pressure;BME280_temperature;BME280_humidity;BME280_pressure;Samples;Min_cycle;Max_cycle;Signal;HPM_P1;HPM_P2
2023/11/01 06:01:17;;;;;;;4.50;2.27;;;;;;;;;;5601990;23;20570;-68
2023/11/01 06:03:43;;;;;;;5.80;2.53;;;;;;;;;;4974232;28;20422;-69
2023/11/01 06:06:09;;;;;;;5.27;2.90;;;;;;;;;;4973638;28;20772;-69
2023/11/01 06:08:35;;;;;;;14.40;2.83;;;;;;;;;;4973965;28;20419;-68
2023/11/01 06:11:01;;;;;;;6.70;2.60;;;;;;;;;;4973782;28;20428;-69
2023/11/01 06:13:27;;;;;;;6.90;2.90;;;;;;;;;;4996713;23;20480;-71
2023/11/01 06:15:58;;;;;;;4.00;2.93;;;;;;;;;;4974388;28;20412;-72
2023/11/01 06:18:24;;;;;;;2.87;2.20;;;;;;;;;;4973973;28;20911;-72
2023/11/01 06:20:50;;;;;;;9.07;2.60;;;;;;;;;;4973960;28;20412;-72
2023/11/01 06:23:15;;;;;;;5.50;2.70;;;;;;;;;;4956719;28;20424;-72
2023/11/01 06:25:41;;;;;;;3.30;2.70;;;;;;;;;;4974033;28;20495;-72
2023/11/01 06:28:08;;;;;;;8.07;2.67;;;;;;;;;;4973930;28;20924;-72
2023/11/01 06:30:34;;;;;;;8.00;2.80;;;;;;;;;;4973736;28;20440;-72
2023/11/01 06:33:01;;;;;;;3.63;2.33;;;;;;;;;;4956381;28;20796;-73
2023/11/01 06:35:28;;;;;;;6.60;2.70;;;;;;;;;;4956535;28;20423;-72
2023/11/01 06:37:54;;;;;;;6.43;2.73;;;;;;;;;;4956412;28;20455;-72
2023/11/01 06:40:20;;;;;;;5.00;2.37;;;;;;;;;;4973763;28;20514;-72
2023/11/01 06:42:46;;;;;;;3.50;2.33;;;;;;;;;;4973572;28;20776;-72
2023/11/01 06:45:12;;;;;;;5.17;2.27;;;;;;;;;;4973747;28;20494;-72
2023/11/01 06:47:38;;;;;;;5.70;2.67;;;;;;;;;;4956646;28;20503;-72
2023/11/01 06:50:04;;;;;;;4.07;2.57;;;;;;;;;;4973647;28;20418;-72
2023/11/01 06:52:30;;;;;;;8.00;3.50;;;;;;;;;;4973357;28;20443;-72
2023/11/01 06:54:56;;;;;;;6.30;2.87;;;;;;;;;;4956034;28;20527;-72
2023/11/01 06:57:22;;;;;;;11.43;2.80;;;;;;;;;;4956600;28;20459;-72
2023/11/01 06:59:48;;;;;;;3.53;2.20;;;;;;;;;;4956185;28;20420;-72
2023/11/01 07:02:14;;;;;;;3.83;2.10;;;;;;;;;;4955915;28;20522;-72
2023/11/01 07:04:40;;;;;;;7.20;2.83;;;;;;;;;;4973447;28;20435;-72
2023/11/01 07:07:06;;;;;;;3.70;2.37;;;;;;;;;;4973615;28;20467;-72
2023/11/01 07:09:32;;;;;;;5.43;2.77;;;;;;;;;;4973199;28;20404;-72
2023/11/01 07:11:58;;;;;;;5.13;2.47;;;;;;;;;;4973117;28;20415;-72
2023/11/01 07:14:24;;;;;;;4.67;2.47;;;;;;;;;;4973457;28;20447;-72
2023/11/01 07:16:50;;;;;;;7.00;2.70;;;;;;;;;;4961618;28;20868;-73
2023/11/01 07:19:16;;;;;;;9.13;2.60;;;;;;;;;;4985051;28;20420;-77
2023/11/01 07:21:44;;;;;;;5.97;2.40;;;;;;;;;;4980646;28;20483;-76
2023/11/01 07:24:10;;;;;;;6.13;3.07;;;;;;;;;;4973897;28;20488;-72
2023/11/01 07:26:37;;;;;;;7.60;2.47;;;;;;;;;;4974157;28;21054;-72
2023/11/01 07:29:03;;;;;;;6.83;2.33;;;;;;;;;;4963895;28;20487;-72
2023/11/01 07:31:29;;;;;;;5.60;2.37;;;;;;;;;;4965373;28;22211;-74
2023/11/01 07:33:55;;;;;;;5.50;2.57;;;;;;;;;;4956947;28;21004;-71
2023/11/01 07:36:21;;;;;;;4.17;2.80;;;;;;;;;;4973870;28;20462;-68
2023/11/01 07:38:47;;;;;;;10.93;2.90;;;;;;;;;;4973910;28;20501;-66
2023/11/01 07:41:15;;;;;;;2.90;2.37;;;;;;;;;;4975650;28;20419;-65
2023/11/01 07:43:41;;;;;;;6.20;3.00;;;;;;;;;;4976408;28;20887;-66
2023/11/01 07:46:10;;;;;;;8.07;2.70;;;;;;;;;;4978752;28;20428;-72
2023/11/01 07:48:36;;;;;;;4.17;2.10;;;;;;;;;;4979757;28;20416;-73
2023/11/01 07:51:05;;;;;;;2.70;2.00;;;;;;;;;;4976331;28;20922;-72
2023/11/01 07:53:32;;;;;;;7.23;2.43;;;;;;;;;;4979116;28;20465;-72
2023/11/01 07:55:58;;;;;;;4.90;2.50;;;;;;;;;;4977492;28;20991;-72
2023/11/01 07:58:24;;;;;;;3.30;2.10;;;;;;;;;;4976938;28;20420;-72
2023/11/01 08:00:50;;;;;;;4.63;2.20;;;;;;;;;;4976882;28;20514;-73
2023/11/01 08:03:16;;;;;;;7.10;1.90;;;;;;;;;;4974697;28;20511;-72
2023/11/01 08:05:43;;;;;;;7.30;2.13;;;;;;;;;;4978322;28;20423;-72
2023/11/01 08:08:09;;;;;;;4.40;2.20;;;;;;;;;;4976168;28;20466;-72
2023/11/01 08:10:35;;;;;;;3.50;2.17;;;;;;;;;;4974966;28;20427;-72
2023/11/01 08:13:01;;;;;;;4.90;1.90;;;;;;;;;;4976272;28;20416;-73
2023/11/01 08:15:27;;;;;;;6.03;2.17;;;;;;;;;;4976585;28;20434;-73
2023/11/01 08:17:53;;;;;;;2.60;1.50;;;;;;;;;;4980118;28;20434;-73
2023/11/01 08:20:19;;;;;;;4.70;2.03;;;;;;;;;;4976851;28;20808;-73
2023/11/01 08:22:45;;;;;;;3.83;1.60;;;;;;;;;;4976299;28;20442;-73
2023/11/01 08:25:12;;;;;;;5.17;1.73;;;;;;;;;;4977443;28;20510;-72
2023/11/01 08:27:38;;;;;;;5.50;1.83;;;;;;;;;;4980429;28;20467;-73
2023/11/01 08:30:04;;;;;;;2.90;1.90;;;;;;;;;;4980618;28;20949;-73
2023/11/01 08:32:30;;;;;;;3.00;2.00;;;;;;;;;;4961361;28;20482;-72
2023/11/01 08:34:57;;;;;;;9.03;2.33;;;;;;;;;;4961301;28;20475;-72
2023/11/01 08:37:23;;;;;;;4.10;1.83;;;;;;;;;;4977261;28;20490;-73
2023/11/01 08:39:49;;;;;;;6.00;2.00;;;;;;;;;;4975349;28;20423;-73
2023/11/01 08:42:15;;;;;;;4.73;1.90;;;;;;;;;;4975752;28;20423;-73
2023/11/01 08:44:41;;;;;;;7.57;2.10;;;;;;;;;;4975892;28;20440;-71
2023/11/01 08:47:08;;;;;;;7.40;1.70;;;;;;;;;;4976017;28;20803;-71
2023/11/01 08:49:34;;;;;;;7.90;1.80;;;;;;;;;;4975465;28;20426;-73
2023/11/01 08:52:00;;;;;;;2.57;1.90;;;;;;;;;;4974163;28;20424;-73
2023/11/01 08:54:26;;;;;;;5.20;1.80;;;;;;;;;;4957014;28;20450;-72
2023/11/01 08:56:54;;;;;;;5.37;1.90;;;;;;;;;;4974840;28;20793;-74
2023/11/01 08:59:20;;;;;;;4.93;2.03;;;;;;;;;;4975430;28;20459;-73
2023/11/01 09:01:46;;;;;;;4.90;2.17;;;;;;;;;;4974568;28;20522;-73
2023/11/01 09:04:13;;;;;;;5.50;2.03;;;;;;;;;;4957674;28;20466;-74
2023/11/01 09:06:39;;;;;;;4.20;1.80;;;;;;;;;;4957250;28;21013;-74
2023/11/01 09:09:06;;;;;;;5.03;2.23;;;;;;;;;;4956262;28;20423;-74
2023/11/01 09:11:32;;;;;;;4.17;2.13;;;;;;;;;;4957436;28;20412;-74
2023/11/01 09:13:58;;;;;;;3.00;1.83;;;;;;;;;;4991359;28;20495;-73
2023/11/01 09:16:24;;;;;;;4.40;1.87;;;;;;;;;;4998597;28;20471;-73
2023/11/01 09:18:52;;;;;;;5.33;1.80;;;;;;;;;;4972446;28;20443;-74
2023/11/01 09:21:19;;;;;;;3.70;1.97;;;;;;;;;;4976206;28;20447;-74
2023/11/01 09:23:45;;;;;;;4.93;1.83;;;;;;;;;;4975925;28;20490;-75
2023/11/01 09:26:14;;;;;;;5.23;1.90;;;;;;;;;;4974903;28;20903;-73
2023/11/01 09:28:40;;;;;;;5.00;1.80;;;;;;;;;;4975044;28;20414;-74
2023/11/01 09:31:06;;;;;;;2.73;1.63;;;;;;;;;;4974799;28;20408;-73
2023/11/01 09:33:32;;;;;;;2.90;1.30;;;;;;;;;;4974438;28;20427;-73
2023/11/01 09:35:58;;;;;;;5.50;2.00;;;;;;;;;;4974846;28;20459;-73
2023/11/01 09:38:23;;;;;;;2.47;1.60;;;;;;;;;;4974708;28;20416;-73
2023/11/01 09:40:50;;;;;;;5.13;1.70;;;;;;;;;;4974637;28;20455;-73
2023/11/01 09:43:22;;;;;;;3.80;1.40;;;;;;;;;;4974618;28;20427;-73
2023/11/01 09:45:48;;;;;;;3.43;1.60;;;;;;;;;;4974674;28;20416;-73
2023/11/01 09:48:14;;;;;;;1.87;1.20;;;;;;;;;;4957345;28;20464;-73
2023/11/01 09:50:40;;;;;;;4.37;1.50;;;;;;;;;;4974031;28;20792;-73
2023/11/01 09:53:06;;;;;;;2.43;1.40;;;;;;;;;;4973849;28;20420;-73
2023/11/01 09:55:32;;;;;;;2.20;1.60;;;;;;;;;;4974388;28;20432;-73
2023/11/01 09:57:59;;;;;;;2.13;1.30;;;;;;;;;;4974701;28;20422;-74
2023/11/01 10:00:25;;;;;;;2.77;1.60;;;;;;;;;;4974317;28;20478;-74
2023/11/01 10:02:52;;;;;;;3.47;1.90;;;;;;;;;;4974857;28;20938;-74
2023/11/01 10:05:18;;;;;;;3.60;1.10;;;;;;;;;;4973886;28;20440;-74
2023/11/01 10:07:44;;;;;;;1.73;1.03;;;;;;;;;;4973423;28;20859;-74
2023/11/01 10:10:16;;;;;;;3.80;1.73;;;;;;;;;;4973855;28;20428;-74
2023/11/01 10:12:43;;;;;;;3.73;1.00;;;;;;;;;;4974045;28;20408;-74
2023/11/01 10:15:19;;;;;;;2.80;1.33;;;;;;;;;;4974073;28;20864;-74
2023/11/01 10:17:45;;;;;;;2.77;1.13;;;;;;;;;;4974155;28;20466;-74
2023/11/01 10:20:23;;;;;;;5.60;1.50;;;;;;;;;;4974005;28;20435;-74
2023/11/01 10:22:49;;;;;;;2.23;1.30;;;;;;;;;;4973683;28;20470;-74
2023/11/01 10:25:15;;;;;;;5.03;1.30;;;;;;;;;;4956201;28;20451;-75
2023/11/01 10:27:41;;;;;;;6.33;2.07;;;;;;;;;;4973772;28;20510;-74
2023/11/01 10:30:08;;;;;;;5.60;1.47;;;;;;;;;;4973666;28;20966;-74
2023/11/01 10:32:34;;;;;;;2.33;1.53;;;;;;;;;;4973670;28;20451;-74
2023/11/01 10:35:15;;;;;;;5.63;2.40;;;;;;;;;;4973632;28;20463;-74
2023/11/01 10:37:41;;;;;;;2.90;1.40;;;;;;;;;;4973876;28;20895;-75
2023/11/01 10:40:07;;;;;;;4.70;1.40;;;;;;;;;;4973315;28;20415;-74
2023/11/01 10:42:34;;;;;;;2.00;1.30;;;;;;;;;;4973485;28;20482;-74
2023/11/01 10:45:00;;;;;;;3.67;1.60;;;;;;;;;;4973504;28;20443;-74
2023/11/01 10:47:26;;;;;;;3.10;1.40;;;;;;;;;;4973640;28;20451;-74
2023/11/01 10:49:55;;;;;;;3.20;2.00;;;;;;;;;;4973377;28;20495;-74
2023/11/01 10:52:21;;;;;;;1.70;1.10;;;;;;;;;;4955247;28;20447;-73
2023/11/01 10:54:48;;;;;;;2.23;1.17;;;;;;;;;;4960054;28;20807;-73
2023/11/01 10:57:14;;;;;;;3.33;1.47;;;;;;;;;;4973532;28;20415;-73
2023/11/01 10:59:44;;;;;;;2.80;1.20;;;;;;;;;;4973506;28;20428;-75
2023/11/01 11:02:22;;;;;;;4.20;1.90;;;;;;;;;;4973163;28;20422;-74
2023/11/01 11:04:56;;;;;;;2.37;1.40;;;;;;;;;;4973286;28;20435;-74
2023/11/01 11:07:43;;;;;;;3.70;1.67;;;;;;;;;;4973218;28;20780;-74
2023/11/01 11:10:20;;;;;;;1.40;1.00;;;;;;;;;;4973150;28;20923;-74
2023/11/01 11:13:06;;;;;;;2.40;1.20;;;;;;;;;;4972976;28;20446;-74
2023/11/01 11:15:47;;;;;;;1.90;1.20;;;;;;;;;;4973185;28;20523;-73
2023/11/01 11:18:18;;;;;;;7.97;1.17;;;;;;;;;;4973637;28;20781;-74
2023/11/01 11:20:45;;;;;;;7.17;1.70;;;;;;;;;;4955336;28;20415;-74
2023/11/01 11:23:13;;;;;;;3.63;1.40;;;;;;;;;;4973195;28;20998;-73
2023/11/01 11:25:44;;;;;;;2.80;1.50;;;;;;;;;;4973144;28;20407;-73
2023/11/01 11:28:38;;;;;;;3.70;1.70;;;;;;;;;;4973369;28;21049;-74
2023/11/01 11:31:15;;;;;;;1.87;1.10;;;;;;;;;;4972491;28;20412;-73
2023/11/01 11:33:47;;;;;;;2.17;1.43;;;;;;;;;;4973019;28;20427;-73
2023/11/01 11:36:13;;;;;;;5.33;1.53;;;;;;;;;;4972978;28;20412;-75
2023/11/01 11:38:55;;;;;;;5.17;2.00;;;;;;;;;;4955181;28;20843;-74
2023/11/01 11:41:28;;;;;;;3.50;1.57;;;;;;;;;;4972567;28;20423;-74
2023/11/01 11:44:13;;;;;;;6.43;1.73;;;;;;;;;;4972815;28;20507;-74
2023/11/01 11:46:42;;;;;;;3.07;1.37;;;;;;;;;;4972765;28;20518;-73
2023/11/01 11:49:09;;;;;;;5.83;1.50;;;;;;;;;;4972888;28;20471;-73
2023/11/01 11:51:35;;;;;;;5.80;1.53;;;;;;;;;;4972362;28;20416;-73
2023/11/01 11:54:17;;;;;;;1.73;1.30;;;;;;;;;;4972559;28;20444;-74
2023/11/01 11:56:43;;;;;;;8.53;1.63;;;;;;;;;;4972952;28;20458;-73
2023/11/01 11:59:09;;;;;;;8.60;1.40;;;;;;;;;;4972673;28;20412;-74
2023/11/01 12:01:36;;;;;;;7.33;1.83;;;;;;;;;;4972826;28;20470;-74
2023/11/01 12:04:02;;;;;;;2.30;1.57;;;;;;;;;;4972491;28;20443;-73
2023/11/01 12:06:46;;;;;;;6.10;1.93;;;;;;;;;;4972112;28;20459;-73
2023/11/01 12:09:17;;;;;;;1.93;1.07;;;;;;;;;;4972682;28;20784;-74
2023/11/01 12:11:44;;;;;;;2.17;1.20;;;;;;;;;;4972370;28;20416;-74
2023/11/01 12:14:10;;;;;;;1.37;1.10;;;;;;;;;;4972431;28;20455;-74
2023/11/01 12:16:36;;;;;;;1.60;1.20;;;;;;;;;;4966609;28;20793;-74
2023/11/01 12:19:08;;;;;;;2.10;1.23;;;;;;;;;;4935984;29;20413;-74
2023/11/01 12:21:34;;;;;;;7.40;1.50;;;;;;;;;;4957938;28;20424;-74
2023/11/01 12:24:00;;;;;;;2.33;1.40;;;;;;;;;;4972568;28;20765;-74
2023/11/01 12:26:27;;;;;;;3.63;1.40;;;;;;;;;;4982526;28;20474;-74
2023/11/01 12:28:55;;;;;;;2.40;1.23;;;;;;;;;;5000636;28;20408;-74
2023/11/01 12:31:20;;;;;;;3.17;1.30;;;;;;;;;;4995442;28;20428;-74
2023/11/01 12:33:46;;;;;;;1.60;1.10;;;;;;;;;;4958937;28;20439;-74
2023/11/01 12:36:17;;;;;;;2.53;1.10;;;;;;;;;;4975632;28;20424;-73
2023/11/01 12:38:46;;;;;;;3.50;1.37;;;;;;;;;;4975638;28;20518;-72
2023/11/01 12:41:11;;;;;;;2.87;1.20;;;;;;;;;;4975641;28;20407;-72
2023/11/01 12:43:37;;;;;;;1.67;1.30;;;;;;;;;;4958198;28;20498;-72
2023/11/01 12:46:04;;;;;;;2.00;1.20;;;;;;;;;;4975347;28;20576;-72
2023/11/01 12:48:30;;;;;;;2.93;1.47;;;;;;;;;;4975568;28;20503;-72
2023/11/01 12:50:55;;;;;;;2.80;1.47;;;;;;;;;;4975379;28;20495;-72
2023/11/01 12:53:21;;;;;;;4.47;1.23;;;;;;;;;;4975124;28;20967;-73
2023/11/01 12:55:48;;;;;;;9.20;1.73;;;;;;;;;;4975302;28;20412;-72
2023/11/01 12:58:14;;;;;;;3.13;1.60;;;;;;;;;;4975259;28;20460;-72
2023/11/01 13:00:40;;;;;;;4.47;1.40;;;;;;;;;;4974959;28;20455;-72
2023/11/01 13:03:06;;;;;;;2.40;1.40;;;;;;;;;;4980949;28;20833;-72
2023/11/01 13:05:32;;;;;;;6.00;1.43;;;;;;;;;;4981038;28;20415;-72
2023/11/01 13:08:00;;;;;;;4.57;1.60;;;;;;;;;;4977736;28;20466;-71
2023/11/01 13:10:26;;;;;;;4.90;1.60;;;;;;;;;;4955776;29;20504;-74
2023/11/01 13:12:52;;;;;;;1.67;1.10;;;;;;;;;;4955902;29;20987;-74
2023/11/01 13:15:18;;;;;;;1.90;1.23;;;;;;;;;;4938210;29;20460;-73
2023/11/01 13:17:44;;;;;;;2.30;1.40;;;;;;;;;;4950402;28;20788;-74
2023/11/01 13:20:10;;;;;;;1.83;1.30;;;;;;;;;;4975086;28;20412;-73
2023/11/01 13:22:36;;;;;;;1.50;1.10;;;;;;;;;;4975352;28;20416;-75
2023/11/01 13:25:02;;;;;;;2.13;1.50;;;;;;;;;;4974866;28;20564;-72
2023/11/01 13:27:28;;;;;;;1.00;0.90;;;;;;;;;;4957617;28;20463;-72
2023/11/01 13:29:54;;;;;;;2.80;1.40;;;;;;;;;;4976638;28;20748;-72
2023/11/01 13:32:20;;;;;;;3.60;1.67;;;;;;;;;;4976388;28;20448;-72
2023/11/01 13:34:46;;;;;;;3.00;1.20;;;;;;;;;;4975990;28;20448;-72
2023/11/01 13:37:14;;;;;;;2.03;1.37;;;;;;;;;;4975804;28;20951;-72
2023/11/01 13:39:40;;;;;;;3.33;1.43;;;;;;;;;;4974882;28;20939;-73
2023/11/01 13:42:06;;;;;;;3.13;1.47;;;;;;;;;;4975425;28;20416;-72
2023/11/01 13:44:32;;;;;;;2.00;1.10;;;;;;;;;;4974964;28;20434;-73
2023/11/01 13:46:58;;;;;;;1.63;1.10;;;;;;;;;;4974495;28;20463;-72
2023/11/01 13:49:24;;;;;;;3.10;1.43;;;;;;;;;;4974716;28;20423;-73
2023/11/01 13:51:50;;;;;;;2.70;1.40;;;;;;;;;;4956834;28;20430;-72
2023/11/01 13:54:16;;;;;;;1.37;1.10;;;;;;;;;;4974436;28;20447;-71
2023/11/01 13:56:42;;;;;;;3.60;1.30;;;;;;;;;;4974299;28;20416;-72
2023/11/01 13:59:08;;;;;;;2.43;1.07;;;;;;;;;;4974595;28;20439;-72
2023/11/01 14:01:34;;;;;;;3.23;1.20;;;;;;;;;;4974112;28;20463;-72
2023/11/01 14:04:00;;;;;;;1.97;1.30;;;;;;;;;;4973585;28;20950;-73
2023/11/01 14:06:27;;;;;;;2.53;1.20;;;;;;;;;;4974066;28;20435;-73
2023/11/01 14:08:53;;;;;;;2.07;1.03;;;;;;;;;;4974341;28;20406;-73
2023/11/01 14:11:22;;;;;;;1.97;1.40;;;;;;;;;;4974067;28;20400;-72
2023/11/01 14:13:48;;;;;;;1.67;1.20;;;;;;;;;;4957423;28;20459;-73
2023/11/01 14:16:14;;;;;;;6.03;1.90;;;;;;;;;;4974633;28;20400;-73
2023/11/01 14:18:40;;;;;;;4.40;1.50;;;;;;;;;;4973594;28;20440;-73
2023/11/01 14:21:07;;;;;;;2.97;1.40;;;;;;;;;;4973599;28;20930;-72
2023/11/01 14:23:33;;;;;;;2.80;1.50;;;;;;;;;;4973765;28;20464;-75
2023/11/01 14:25:59;;;;;;;4.23;2.30;;;;;;;;;;4975296;28;20415;-72
2023/11/01 14:28:26;;;;;;;1.70;1.20;;;;;;;;;;4956593;28;20464;-72
2023/11/01 14:30:52;;;;;;;2.97;1.53;;;;;;;;;;4973798;28;20404;-73
2023/11/01 14:33:18;;;;;;;6.30;1.57;;;;;;;;;;4973435;28;20942;-74
2023/11/01 14:35:44;;;;;;;1.30;1.00;;;;;;;;;;4974285;28;20408;-73
2023/11/01 14:38:10;;;;;;;1.93;1.63;;;;;;;;;;4974274;28;20469;-74
2023/11/01 14:40:37;;;;;;;5.77;2.40;;;;;;;;;;4974385;28;20416;-71
2023/11/01 14:43:03;;;;;;;4.30;2.27;;;;;;;;;;4973786;28;20440;-73
2023/11/01 14:45:29;;;;;;;8.30;2.87;;;;;;;;;;4973513;28;20503;-73
2023/11/01 14:47:56;;;;;;;2.27;1.50;;;;;;;;;;4956062;28;20474;-73
2023/11/01 14:50:22;;;;;;;2.90;1.47;;;;;;;;;;4972378;28;20817;-72
2023/11/01 14:52:49;;;;;;;3.50;1.70;;;;;;;;;;4973121;28;20416;-73
2023/11/01 14:55:15;;;;;;;2.67;1.40;;;;;;;;;;4973518;28;20439;-72
2023/11/01 14:57:42;;;;;;;3.30;1.27;;;;;;;;;;4973471;28;20978;-72
2023/11/01 15:00:10;;;;;;;1.90;1.33;;;;;;;;;;4973438;28;20419;-74
2023/11/01 15:02:36;;;;;;;2.53;1.73;;;;;;;;;;4973063;28;20467;-72
2023/11/01 15:05:04;;;;;;;3.27;1.87;;;;;;;;;;4973307;28;20431;-73
2023/11/01 15:07:30;;;;;;;2.30;1.40;;;;;;;;;;4974442;28;20558;-72
2023/11/01 15:09:56;;;;;;;1.50;1.50;;;;;;;;;;4973279;28;20415;-72
2023/11/01 15:12:23;;;;;;;1.77;1.33;;;;;;;;;;4973319;28;20535;-72
2023/11/01 15:14:49;;;;;;;2.03;1.50;;;;;;;;;;4973175;28;20475;-72
2023/11/01 15:17:15;;;;;;;2.87;1.80;;;;;;;;;;4973098;28;20428;-72
2023/11/01 15:19:43;;;;;;;3.00;1.60;;;;;;;;;;4973187;28;20791;-73
2023/11/01 15:22:10;;;;;;;4.23;1.47;;;;;;;;;;4973069;28;20462;-73
2023/11/01 15:24:36;;;;;;;3.53;2.50;;;;;;;;;;4973141;28;20981;-73
2023/11/01 15:27:02;;;;;;;1.70;1.40;;;;;;;;;;4972880;28;20459;-72
2023/11/01 15:29:28;;;;;;;3.43;1.50;;;;;;;;;;4973159;28;20902;-72
2023/11/01 15:31:54;;;;;;;1.60;1.60;;;;;;;;;;4976356;28;20423;-74
2023/11/01 15:34:20;;;;;;;3.40;1.80;;;;;;;;;;4996522;28;20444;-75
2023/11/01 15:36:46;;;;;;;4.53;1.80;;;;;;;;;;4997279;28;20426;-76
2023/11/01 15:39:12;;;;;;;3.23;1.90;;;;;;;;;;4997559;28;20419;-76
2023/11/01 15:41:39;;;;;;;2.20;1.80;;;;;;;;;;4997113;28;20407;-75
2023/11/01 15:44:06;;;;;;;1.90;1.60;;;;;;;;;;4983931;28;20915;-73
2023/11/01 15:46:32;;;;;;;4.83;2.23;;;;;;;;;;4973329;28;20443;-72
2023/11/01 15:48:59;;;;;;;4.07;1.90;;;;;;;;;;4973382;28;20412;-73
2023/11/01 15:51:25;;;;;;;6.40;2.50;;;;;;;;;;4973135;28;20415;-72
2023/11/01 15:53:51;;;;;;;4.70;2.30;;;;;;;;;;4972848;28;20486;-72
2023/11/01 15:56:17;;;;;;;4.40;2.40;;;;;;;;;;4972315;28;20613;-71
2023/11/01 15:58:43;;;;;;;6.30;2.70;;;;;;;;;;4955476;28;20439;-73
2023/11/01 16:01:09;;;;;;;8.00;2.10;;;;;;;;;;4972681;28;20416;-72
2023/11/01 16:03:34;;;;;;;3.00;2.20;;;;;;;;;;4975809;28;20450;-73
2023/11/01 16:06:00;;;;;;;3.00;2.43;;;;;;;;;;4976388;28;20899;-73
2023/11/01 16:08:26;;;;;;;5.23;3.37;;;;;;;;;;4958736;28;20887;-73
2023/11/01 16:10:53;;;;;;;4.07;2.53;;;;;;;;;;4975980;28;20495;-72
2023/11/01 16:13:19;;;;;;;3.37;2.27;;;;;;;;;;4976019;28;20510;-73
2023/11/01 16:15:45;;;;;;;3.33;2.47;;;;;;;;;;4958888;28;20411;-72
2023/11/01 16:18:11;;;;;;;3.33;2.57;;;;;;;;;;4975995;28;20412;-73
2023/11/01 16:20:38;;;;;;;11.43;3.10;;;;;;;;;;4975661;28;20429;-72
2023/11/01 16:23:04;;;;;;;3.77;2.70;;;;;;;;;;4958313;28;20428;-72
2023/11/01 16:25:30;;;;;;;10.80;3.70;;;;;;;;;;4975924;28;20408;-72
2023/11/01 16:27:56;;;;;;;10.13;4.93;;;;;;;;;;4958717;28;21065;-72
2023/11/01 16:30:22;;;;;;;10.67;4.53;;;;;;;;;;4976019;28;20791;-72
2023/11/01 16:32:52;;;;;;;11.47;4.30;;;;;;;;;;4958514;28;20419;-72
2023/11/01 16:35:18;;;;;;;7.60;3.80;;;;;;;;;;4975804;28;20958;-73
2023/11/01 16:37:45;;;;;;;9.83;3.87;;;;;;;;;;4976650;28;20485;-74
2023/11/01 16:40:12;;;;;;;6.40;3.63;;;;;;;;;;4976231;28;20443;-73
2023/11/01 16:42:38;;;;;;;5.57;3.20;;;;;;;;;;4975589;28;20443;-72
2023/11/01 16:45:04;;;;;;;6.40;3.80;;;;;;;;;;4975935;28;20935;-73
2023/11/01 16:47:30;;;;;;;10.53;3.40;;;;;;;;;;4975621;28;20835;-72
2023/11/01 16:49:56;;;;;;;6.80;3.40;;;;;;;;;;4975826;28;20499;-72
2023/11/01 16:52:23;;;;;;;4.43;3.10;;;;;;;;;;4975191;28;20427;-72
2023/11/01 16:54:49;;;;;;;4.30;2.70;;;;;;;;;;4975957;28;20428;-72
2023/11/01 16:57:15;;;;;;;6.47;3.40;;;;;;;;;;4975891;28;20420;-72
2023/11/01 16:59:41;;;;;;;5.13;2.80;;;;;;;;;;4975616;28;20412;-72
2023/11/01 17:02:07;;;;;;;3.50;2.73;;;;;;;;;;4975512;28;20427;-72
2023/11/01 17:04:35;;;;;;;5.40;2.33;;;;;;;;;;4980549;28;20482;-71
2023/11/01 17:07:01;;;;;;;4.43;2.57;;;;;;;;;;4982624;28;20491;-71
2023/11/01 17:09:27;;;;;;;2.70;2.50;;;;;;;;;;4982791;28;20447;-72
2023/11/01 17:11:54;;;;;;;6.10;2.90;;;;;;;;;;4982298;28;20444;-72
2023/11/01 17:14:20;;;;;;;10.23;2.70;;;;;;;;;;4976799;28;20462;-71
2023/11/01 17:16:47;;;;;;;4.93;2.03;;;;;;;;;;4975126;28;20791;-72
2023/11/01 17:19:13;;;;;;;4.10;2.30;;;;;;;;;;4975092;28;20738;-72
2023/11/01 17:21:39;;;;;;;9.50;3.20;;;;;;;;;;4975427;28;20495;-72
2023/11/01 17:24:06;;;;;;;6.73;2.40;;;;;;;;;;4959049;28;20451;-72
2023/11/01 17:26:32;;;;;;;5.20;2.40;;;;;;;;;;4959413;28;20791;-71
2023/11/01 17:28:59;;;;;;;8.43;3.10;;;;;;;;;;4975176;28;20415;-73
2023/11/01 17:31:35;;;;;;;4.43;2.40;;;;;;;;;;4974756;28;20963;-74
2023/11/01 17:34:01;;;;;;;5.60;2.80;;;;;;;;;;4957634;28;20855;-73
2023/11/01 17:36:28;;;;;;;3.67;2.50;;;;;;;;;;4957656;28;20471;-73
2023/11/01 17:38:55;;;;;;;6.90;2.87;;;;;;;;;;4974825;28;20416;-73
2023/11/01 17:41:36;;;;;;;5.70;2.40;;;;;;;;;;4975274;28;20408;-73
2023/11/01 17:44:02;;;;;;;5.70;2.37;;;;;;;;;;4974451;28;20467;-73
2023/11/01 17:46:28;;;;;;;5.13;2.80;;;;;;;;;;4974624;28;20900;-73
2023/11/01 17:48:55;;;;;;;3.50;2.70;;;;;;;;;;4974777;28;20499;-73
2023/11/01 17:51:21;;;;;;;4.53;2.93;;;;;;;;;;4974555;28;20412;-73
2023/11/01 17:53:47;;;;;;;3.30;2.53;;;;;;;;;;4974817;28;21001;-73
2023/11/01 17:56:13;;;;;;;6.70;3.30;;;;;;;;;;4974493;28;20487;-71
2023/11/01 17:58:39;;;;;;;10.37;4.30;;;;;;;;;;4974389;28;20424;-73
2023/11/01 18:01:09;;;;;;;9.40;4.03;;;;;;;;;;4974229;28;20793;-72
2023/11/01 18:03:37;;;;;;;9.43;4.67;;;;;;;;;;4974650;28;20784;-73
2023/11/01 18:06:03;;;;;;;9.97;4.07;;;;;;;;;;4974353;28;20444;-70
2023/11/01 18:08:32;;;;;;;10.00;3.83;;;;;;;;;;4973680;28;20463;-70
2023/11/01 18:10:59;;;;;;;7.97;3.43;;;;;;;;;;4974309;28;20474;-70
2023/11/01 18:13:26;;;;;;;7.20;3.10;;;;;;;;;;4974227;28;20459;-70
2023/11/01 18:15:53;;;;;;;7.70;3.30;;;;;;;;;;4974153;28;20888;-71
2023/11/01 18:18:38;;;;;;;4.57;2.63;;;;;;;;;;4974069;28;20424;-71
2023/11/01 18:21:14;;;;;;;8.13;2.90;;;;;;;;;;4973915;28;20780;-71
2023/11/01 18:23:40;;;;;;;6.37;2.40;;;;;;;;;;4973109;28;20510;-70
2023/11/01 18:26:11;;;;;;;4.73;2.60;;;;;;;;;;4972963;28;20427;-70
2023/11/01 18:28:40;;;;;;;7.83;3.60;;;;;;;;;;4963083;28;20538;-69
2023/11/01 18:31:09;;;;;;;8.50;3.33;;;;;;;;;;4972923;28;20526;-69
2023/11/01 18:33:35;;;;;;;7.20;3.57;;;;;;;;;;4973175;28;20514;-78
2023/11/01 18:36:00;;;;;;;4.83;3.53;;;;;;;;;;4956452;28;20527;-74
2023/11/01 18:38:53;;;;;;;6.07;3.70;;;;;;;;;;4973374;28;20439;-74
2023/11/01 18:41:21;;;;;;;6.30;3.70;;;;;;;;;;4968879;28;20436;-74
2023/11/01 18:43:47;;;;;;;8.50;4.60;;;;;;;;;;4973541;28;20894;-74
2023/11/01 18:46:13;;;;;;;9.13;3.87;;;;;;;;;;4973452;28;20440;-74
2023/11/01 18:48:40;;;;;;;6.37;3.70;;;;;;;;;;4973566;28;20471;-74
2023/11/01 18:51:10;;;;;;;11.73;5.17;;;;;;;;;;4973201;28;20916;-73
2023/11/01 18:53:40;;;;;;;20.60;7.90;;;;;;;;;;4988894;28;20466;-75
2023/11/01 18:56:06;;;;;;;19.97;8.63;;;;;;;;;;4995598;28;20464;-75
2023/11/01 18:58:34;;;;;;;21.80;8.50;;;;;;;;;;4985580;28;20903;-73
2023/11/01 19:01:01;;;;;;;24.53;10.83;;;;;;;;;;4973865;28;20463;-74
2023/11/01 19:03:27;;;;;;;15.47;6.77;;;;;;;;;;4973833;28;20435;-74
2023/11/01 19:05:54;;;;;;;10.40;4.93;;;;;;;;;;4973878;28;20516;-73
2023/11/01 19:08:20;;;;;;;6.70;3.10;;;;;;;;;;4972846;28;20841;-74
2023/11/01 19:10:48;;;;;;;3.10;2.90;;;;;;;;;;4972224;28;20526;-76
2023/11/01 19:13:14;;;;;;;4.40;2.57;;;;;;;;;;4973017;28;20424;-75
2023/11/01 19:15:43;;;;;;;4.50;2.70;;;;;;;;;;4973533;28;20420;-73
2023/11/01 19:18:10;;;;;;;5.90;2.40;;;;;;;;;;4973458;28;20831;-73
2023/11/01 19:20:36;;;;;;;4.30;2.83;;;;;;;;;;4973028;28;20420;-73
2023/11/01 19:23:03;;;;;;;2.50;2.00;;;;;;;;;;4972687;28;20427;-73
2023/11/01 19:25:29;;;;;;;6.30;3.73;;;;;;;;;;4973067;28;20420;-71
2023/11/01 19:27:55;;;;;;;8.17;3.37;;;;;;;;;;4972641;28;20466;-72
2023/11/01 19:30:21;;;;;;;4.00;2.40;;;;;;;;;;4973268;28;20950;-71
2023/11/01 19:32:47;;;;;;;3.53;2.17;;;;;;;;;;4973258;28;20891;-74
2023/11/01 19:35:13;;;;;;;2.47;2.20;;;;;;;;;;4955798;28;20436;-74
2023/11/01 19:37:39;;;;;;;2.70;2.57;;;;;;;;;;4974845;28;20945;-74
2023/11/01 19:40:06;;;;;;;4.93;2.63;;;;;;;;;;4976747;28;20787;-75
2023/11/01 19:42:32;;;;;;;5.83;2.63;;;;;;;;;;4958762;28;20427;-74
2023/11/01 19:44:59;;;;;;;2.60;1.70;;;;;;;;;;4976773;28;20431;-75
2023/11/01 19:47:25;;;;;;;3.60;1.77;;;;;;;;;;4973436;28;20970;-74
2023/11/01 19:49:51;;;;;;;4.23;2.00;;;;;;;;;;4959546;28;20451;-75
2023/11/01 19:52:17;;;;;;;2.73;1.90;;;;;;;;;;4976655;28;20404;-73
2023/11/01 19:54:43;;;;;;;2.40;1.43;;;;;;;;;;4976398;28;20502;-75
2023/11/01 19:57:11;;;;;;;3.90;1.40;;;;;;;;;;4972530;28;20432;-75
2023/11/01 19:59:38;;;;;;;1.53;1.43;;;;;;;;;;4974793;28;20438;-76
2023/11/01 20:02:07;;;;;;;1.80;1.30;;;;;;;;;;4976545;28;20506;-74
2023/11/01 20:04:33;;;;;;;3.90;1.80;;;;;;;;;;4976473;28;20454;-74
2023/11/01 20:06:58;;;;;;;1.43;1.27;;;;;;;;;;4976114;28;20471;-76
2023/11/01 20:09:24;;;;;;;18.03;1.67;;;;;;;;;;4976463;28;20412;-75
2023/11/01 20:11:50;;;;;;;1.67;1.10;;;;;;;;;;4975858;28;20567;-75
2023/11/01 20:14:19;;;;;;;3.50;1.23;;;;;;;;;;4976659;28;20455;-75
2023/11/01 20:16:45;;;;;;;1.23;1.10;;;;;;;;;;4976570;28;20494;-75
2023/11/01 20:19:11;;;;;;;1.30;1.20;;;;;;;;;;4976259;28;21013;-76
2023/11/01 20:21:37;;;;;;;2.00;1.40;;;;;;;;;;4976543;28;20463;-76
2023/11/01 20:24:04;;;;;;;2.33;1.70;;;;;;;;;;4976278;28;20443;-75
2023/11/01 20:26:30;;;;;;;3.00;1.30;;;;;;;;;;4975764;28;20990;-74
2023/11/01 20:28:56;;;;;;;2.27;1.60;;;;;;;;;;4976327;28;20451;-76
2023/11/01 20:31:23;;;;;;;1.27;1.10;;;;;;;;;;4975646;28;20428;-76
2023/11/01 20:33:49;;;;;;;1.47;1.13;;;;;;;;;;4962015;28;21071;-75
2023/11/01 20:36:15;;;;;;;1.77;1.30;;;;;;;;;;4976034;28;20420;-76
2023/11/01 20:38:41;;;;;;;3.13;1.33;;;;;;;;;;4976172;28;20439;-75
2023/11/01 20:41:07;;;;;;;4.30;1.00;;;;;;;;;;4976007;28;20834;-76
2023/11/01 20:43:33;;;;;;;3.90;1.47;;;;;;;;;;4966892;28;20448;-76